Time;durP1;ratioP1;P1;durP2;ratioP2;P2;SDS_P1;SDS_P2;PMS_P1;PMS_P2;Temp;Humidity;BMP_temperature;BMP_pressure;BME280_temperature;BME280_humidity;BME280_pressure;Samples;Min_cycle;Max_cycle;Signal;HPM_P1;HPM_P2
2021/01/13 16:04:10;;;;;;;1999.90;999.90;;;0.00;99.90;;;;;;5054775;28;20654;-47
2021/01/13 16:06:35;;;;;;;1999.90;999.90;;;-0.10;99.90;;;;;;5047118;28;20618;-47
2021/01/13 16:09:02;;;;;;;1999.90;999.90;;;-0.10;99.90;;;;;;5050969;28;20285;-47
2021/01/13 16:11:28;;;;;;;1999.90;999.90;;;0.00;99.90;;;;;;5051271;28;20909;-47
2021/01/13 16:14:03;;;;;;;1999.90;999.90;;;0.00;99.90;;;;;;5047723;28;20487;-48
2021/01/13 16:16:29;;;;;;;1999.90;999.90;;;0.00;99.90;;;;;;5048026;28;20253;-48
2021/01/13 16:18:55;;;;;;;1999.90;999.90;;;-0.10;99.90;;;;;;5050617;28;20440;-47
2021/01/13 16:21:21;;;;;;;1999.90;999.90;;;0.00;99.90;;;;;;5050097;28;20186;-47
2021/01/13 16:23:47;;;;;;;1999.90;999.90;;;0.00;99.90;;;;;;5059311;28;20471;-47
2021/01/13 16:26:13;;;;;;;1999.90;999.90;;;0.00;99.90;;;;;;5048558;28;20224;-47
2021/01/13 16:28:41;;;;;;;1999.90;999.90;;;0.00;99.90;;;;;;5049208;28;20415;-47
2021/01/13 16:31:07;;;;;;;1999.90;999.90;;;0.20;99.90;;;;;;5046403;28;20483;-48
2021/01/13 16:33:38;;;;;;;1999.90;999.90;;;0.20;99.90;;;;;;5053624;28;20455;-48
2021/01/13 16:36:07;;;;;;;1999.90;999.90;;;0.10;99.90;;;;;;5048787;28;20471;-48
2021/01/13 16:38:33;;;;;;;1999.90;999.90;;;0.10;99.90;;;;;;5048959;28;20427;-48
2021/01/13 16:40:59;;;;;;;1999.90;999.90;;;0.10;99.90;;;;;;5051719;28;20466;-48
2021/01/13 16:43:31;;;;;;;1999.90;999.90;;;0.10;99.90;;;;;;5047719;28;20479;-48
2021/01/13 16:46:08;;;;;;;1999.90;999.90;;;0.10;99.90;;;;;;5049915;28;21324;-48
2021/01/13 16:48:34;;;;;;;1999.90;999.90;;;0.10;99.90;;;;;;5050808;28;20427;-48
2021/01/13 16:51:01;;;;;;;1999.90;999.90;;;0.10;99.90;;;;;;5048097;28;20450;-47
2021/01/13 16:53:27;;;;;;;1999.90;999.90;;;0.00;99.90;;;;;;5048998;28;20809;-48
2021/01/13 16:55:54;;;;;;;1999.90;999.90;;;0.00;99.90;;;;;;5050007;28;20513;-47
2021/01/13 16:58:21;;;;;;;1999.90;999.90;;;0.00;99.90;;;;;;5046623;28;20443;-48
2021/01/13 17:00:52;;;;;;;1999.90;999.90;;;0.00;99.90;;;;;;5053188;28;20411;-48
2021/01/13 17:03:19;;;;;;;1999.90;999.90;;;0.00;99.90;;;;;;5050947;28;20590;-47
2021/01/13 17:05:46;;;;;;;1999.90;999.90;;;0.00;99.90;;;;;;5053033;28;20475;-48
2021/01/13 17:08:13;;;;;;;1999.90;999.90;;;0.00;99.90;;;;;;5046072;28;20420;-48
2021/01/13 17:10:39;;;;;;;1999.90;999.90;;;0.00;99.90;;;;;;5048761;28;20424;-47
2021/01/13 17:13:10;;;;;;;1999.90;999.90;;;0.00;99.90;;;;;;5051381;28;20817;-48
2021/01/13 17:15:51;;;;;;;1999.90;999.90;;;0.00;99.90;;;;;;5034687;28;20441;-48
2021/01/13 17:18:18;;;;;;;1999.90;999.90;;;0.00;99.90;;;;;;5038617;28;21086;-48
2021/01/13 17:20:46;;;;;;;1999.90;999.90;;;0.00;99.90;;;;;;5036955;28;20515;-48
2021/01/13 17:23:12;;;;;;;1999.90;999.90;;;0.00;99.90;;;;;;5051488;28;21255;-48
2021/01/13 17:25:38;;;;;;;1999.90;999.90;;;0.00;99.90;;;;;;5044156;28;20464;-47
2021/01/13 17:28:04;;;;;;;1999.90;999.90;;;0.00;99.90;;;;;;5040631;28;21316;-48
2021/01/13 17:30:30;;;;;;;1999.90;999.90;;;0.00;99.90;;;;;;5044034;28;20440;-47
2021/01/13 17:33:00;;;;;;;1999.90;999.90;;;0.00;99.90;;;;;;5037969;28;20211;-48
2021/01/13 17:35:26;;;;;;;1999.90;999.90;;;0.00;99.90;;;;;;5037263;28;20506;-48
2021/01/13 17:37:52;;;;;;;1999.90;999.90;;;0.00;99.90;;;;;;5045661;28;21008;-48
2021/01/13 17:40:19;;;;;;;1999.90;999.90;;;0.00;99.90;;;;;;5043894;28;20449;-48
2021/01/13 17:42:52;;;;;;;1999.90;999.90;;;0.00;99.90;;;;;;5040642;28;20219;-48
2021/01/13 17:45:19;;;;;;;1999.90;999.90;;;0.00;99.90;;;;;;5039096;28;20437;-48
2021/01/13 17:47:45;;;;;;;1999.90;999.90;;;0.00;99.90;;;;;;5031160;28;20471;-48
2021/01/13 17:50:12;;;;;;;1999.90;999.90;;;0.00;99.90;;;;;;5042148;28;20431;-48
2021/01/13 17:52:44;;;;;;;1999.90;999.90;;;0.00;99.90;;;;;;5033521;28;20433;-48
2021/01/13 17:55:12;;;;;;;1999.90;999.90;;;0.00;99.90;;;;;;5031505;28;21058;-48
2021/01/13 17:57:38;;;;;;;1999.90;999.90;;;0.00;99.90;;;;;;5038409;28;20428;-48
2021/01/13 18:00:10;;;;;;;1999.90;999.90;;;0.00;99.90;;;;;;5032836;28;20463;-47
2021/01/13 18:02:36;;;;;;;1999.90;999.90;;;-0.10;99.90;;;;;;5033388;28;20469;-48
2021/01/13 18:05:12;;;;;;;1999.90;999.90;;;-0.10;99.90;;;;;;5036662;28;20465;-48
2021/01/13 18:07:41;;;;;;;1999.90;999.90;;;-0.10;99.90;;;;;;5039582;28;20182;-48
2021/01/13 18:10:10;;;;;;;1999.90;999.90;;;-0.10;99.90;;;;;;5035547;28;20452;-48
2021/01/13 18:12:37;;;;;;;1999.90;999.90;;;-0.10;99.90;;;;;;5037314;28;20432;-48
2021/01/13 18:15:04;;;;;;;1999.90;999.90;;;-0.20;99.90;;;;;;5029618;28;20526;-48
2021/01/13 18:17:30;;;;;;;1999.90;999.90;;;-0.20;99.90;;;;;;5031724;28;20445;-48
2021/01/13 18:19:56;;;;;;;1999.90;999.90;;;-0.20;99.90;;;;;;5035027;28;20438;-48
2021/01/13 18:22:22;;;;;;;1999.90;999.90;;;-0.20;99.90;;;;;;5035715;28;20477;-49
2021/01/13 18:24:48;;;;;;;1999.90;999.90;;;-0.30;99.90;;;;;;5033696;28;20198;-48
2021/01/13 18:27:14;;;;;;;1999.90;999.90;;;-0.30;99.90;;;;;;5032500;28;20195;-48
2021/01/13 18:29:40;;;;;;;1999.90;999.90;;;-0.30;99.90;;;;;;5039786;28;20448;-48
2021/01/13 18:32:06;;;;;;;1999.90;999.90;;;-0.30;99.90;;;;;;5036942;28;20200;-48
2021/01/13 18:34:32;;;;;;;1999.90;999.90;;;-0.40;99.90;;;;;;5034384;28;20187;-48
2021/01/13 18:36:58;;;;;;;1999.90;999.90;;;-0.40;99.90;;;;;;5037146;28;20445;-48
2021/01/13 18:39:24;;;;;;;1999.90;999.90;;;-0.50;99.90;;;;;;5038289;28;20850;-47
2021/01/13 18:41:50;;;;;;;1999.90;999.90;;;-0.40;99.90;;;;;;5044354;28;20458;-48
2021/01/13 18:44:15;;;;;;;1999.90;999.90;;;-0.50;99.90;;;;;;5029717;28;20225;-48
2021/01/13 18:46:43;;;;;;;1999.90;999.90;;;-0.50;99.90;;;;;;5028325;28;20238;-47
2021/01/13 18:49:09;;;;;;;1999.90;999.90;;;-0.50;99.90;;;;;;5040902;28;20277;-53
2021/01/13 18:51:36;;;;;;;1999.90;999.90;;;-0.60;99.90;;;;;;5036236;28;20440;-48
2021/01/13 18:54:06;;;;;;;1999.90;999.90;;;-0.70;99.90;;;;;;5035833;28;20445;-47
2021/01/13 18:56:31;;;;;;;1999.90;999.90;;;-0.60;99.90;;;;;;5038839;28;21223;-47
2021/01/13 18:58:58;;;;;;;1999.90;999.90;;;-0.60;99.90;;;;;;5038177;28;20447;-47
2021/01/13 19:01:23;;;;;;;1999.90;999.90;;;-0.60;99.90;;;;;;5037803;28;20186;-47
2021/01/13 19:03:49;;;;;;;1999.90;999.90;;;-0.60;99.90;;;;;;5038885;28;20542;-48
2021/01/13 19:06:31;;;;;;;1999.90;999.90;;;-0.50;99.90;;;;;;5030485;28;20206;-48
2021/01/13 19:08:58;;;;;;;1999.90;999.90;;;-0.40;99.90;;;;;;5038854;28;20647;-48
2021/01/13 19:11:25;;;;;;;1999.90;999.90;;;-0.50;99.90;;;;;;5038018;28;20417;-47
2021/01/13 19:13:50;;;;;;;1999.90;999.90;;;-0.50;99.90;;;;;;5036927;28;20413;-48
2021/01/13 19:16:23;;;;;;;1999.90;999.90;;;-0.40;99.90;;;;;;5037051;28;20482;-48
2021/01/13 19:18:50;;;;;;;1999.90;999.90;;;-0.40;99.90;;;;;;5034565;28;20528;-48
2021/01/13 19:21:16;;;;;;;1999.90;999.90;;;-0.40;99.90;;;;;;5037265;28;20424;-47
2021/01/13 19:23:42;;;;;;;1999.90;999.90;;;-0.40;99.90;;;;;;5040018;28;20988;-48
2021/01/13 19:26:08;;;;;;;1999.90;999.90;;;-0.30;99.90;;;;;;5043001;28;20447;-48
2021/01/13 19:28:34;;;;;;;1999.90;999.90;;;-0.30;99.90;;;;;;5039934;28;20463;-48
2021/01/13 19:31:00;;;;;;;1999.90;999.90;;;-0.30;99.90;;;;;;5043852;28;20428;-48
2021/01/13 19:33:26;;;;;;;1999.90;999.90;;;-0.40;99.90;;;;;;5039538;28;20221;-47
2021/01/13 19:35:52;;;;;;;1999.90;999.90;;;-0.30;99.90;;;;;;5037826;28;20299;-47
2021/01/13 19:38:18;;;;;;;1999.90;999.90;;;-0.30;99.90;;;;;;5037929;28;20494;-48
2021/01/13 19:40:44;;;;;;;1999.90;999.90;;;-0.30;99.90;;;;;;5037904;28;20451;-47
2021/01/13 19:43:10;;;;;;;1999.90;999.90;;;-0.30;99.90;;;;;;5043322;28;20460;-47
2021/01/13 19:45:37;;;;;;;1999.90;999.90;;;-0.30;99.90;;;;;;5051282;28;20206;-48
2021/01/13 19:48:05;;;;;;;1999.90;999.90;;;-0.30;99.90;;;;;;5041386;28;20841;-47
2021/01/13 19:50:32;;;;;;;1999.90;999.90;;;-0.30;99.90;;;;;;5040632;28;20925;-48
2021/01/13 19:53:05;;;;;;;1999.90;999.90;;;-0.20;99.90;;;;;;5040835;28;20440;-47
2021/01/13 19:55:31;;;;;;;1999.90;999.90;;;-0.20;99.90;;;;;;5044880;28;20471;-47
2021/01/13 19:57:57;;;;;;;1999.90;999.90;;;-0.20;99.90;;;;;;5043691;28;20433;-48
2021/01/13 20:00:23;;;;;;;1999.90;999.90;;;-0.20;99.90;;;;;;5027142;28;20449;-47
2021/01/13 20:02:50;;;;;;;1999.90;999.90;;;-0.20;99.90;;;;;;5032478;28;20232;-48
2021/01/13 20:05:17;;;;;;;1999.90;999.90;;;-0.20;99.90;;;;;;5046855;28;20494;-47
2021/01/13 20:07:44;;;;;;;1999.90;999.90;;;-0.20;99.90;;;;;;5039041;28;20525;-48
2021/01/13 20:10:12;;;;;;;1999.90;999.90;;;-0.20;99.90;;;;;;5037197;28;20442;-48
2021/01/13 20:12:45;;;;;;;1999.90;999.90;;;-0.20;99.90;;;;;;5039489;28;20520;-48
2021/01/13 20:15:13;;;;;;;1999.90;999.90;;;-0.20;99.90;;;;;;5035214;28;20466;-47
2021/01/13 20:17:42;;;;;;;1999.90;999.90;;;-0.20;99.90;;;;;;5030084;28;20455;-48
2021/01/13 20:20:10;;;;;;;1999.90;999.90;;;-0.20;99.90;;;;;;5028789;28;20448;-47
2021/01/13 20:22:36;;;;;;;1999.90;999.90;;;-0.10;99.90;;;;;;5043964;28;21007;-48
2021/01/13 20:25:03;;;;;;;1999.90;999.90;;;-0.20;99.90;;;;;;5047908;28;20445;-47
2021/01/13 20:27:29;;;;;;;1999.90;999.90;;;-0.10;99.90;;;;;;5038640;28;20452;-47
2021/01/13 20:29:54;;;;;;;1999.90;999.90;;;-0.10;99.90;;;;;;5038523;28;20449;-48
2021/01/13 20:32:20;;;;;;;1999.90;999.90;;;-0.10;99.90;;;;;;5039144;28;20190;-47
2021/01/13 20:34:50;;;;;;;1999.90;999.90;;;0.00;99.90;;;;;;5033787;28;20297;-48
2021/01/13 20:37:16;;;;;;;1999.90;999.90;;;0.00;99.90;;;;;;5038563;28;20257;-47
2021/01/13 20:39:42;;;;;;;1999.90;999.90;;;-0.10;99.90;;;;;;5038307;28;20862;-47
2021/01/13 20:42:09;;;;;;;1999.90;999.90;;;-0.10;99.90;;;;;;5040172;28;20422;-47
2021/01/13 20:44:36;;;;;;;1999.90;999.90;;;-0.10;99.90;;;;;;5035317;28;20321;-47
2021/01/13 20:47:02;;;;;;;1999.90;999.90;;;-0.10;99.90;;;;;;5035487;28;20755;-47
2021/01/13 20:49:28;;;;;;;1999.90;999.90;;;-0.10;99.90;;;;;;5034085;28;20437;-47
2021/01/13 20:51:56;;;;;;;1999.90;999.90;;;-0.10;99.90;;;;;;5034644;28;20443;-48
2021/01/13 20:54:22;;;;;;;1999.90;999.90;;;-0.10;99.90;;;;;;5039985;28;20464;-47
2021/01/13 20:56:49;;;;;;;1999.90;999.90;;;-0.20;99.90;;;;;;5044501;28;20487;-47
2021/01/13 20:59:16;;;;;;;1999.90;999.90;;;-0.30;99.90;;;;;;5041501;28;20183;-47
2021/01/13 21:01:45;;;;;;;1999.90;999.90;;;-0.30;99.90;;;;;;5044110;28;20447;-48
2021/01/13 21:04:12;;;;;;;1999.90;999.90;;;-0.20;99.90;;;;;;5043484;28;20461;-47
2021/01/13 21:06:38;;;;;;;1999.90;999.90;;;-0.20;99.90;;;;;;5043833;28;20471;-47
2021/01/13 21:09:05;;;;;;;1999.90;999.90;;;-0.20;99.90;;;;;;5040115;28;20429;-47
2021/01/13 21:11:31;;;;;;;1999.90;999.90;;;-0.20;99.90;;;;;;5032330;28;20187;-47
2021/01/13 21:13:57;;;;;;;1999.90;999.90;;;-0.20;99.90;;;;;;5036585;28;20433;-47
2021/01/13 21:16:22;;;;;;;1999.90;999.90;;;-0.10;99.90;;;;;;5040541;28;21134;-48
2021/01/13 21:18:48;;;;;;;1999.90;999.90;;;-0.10;99.90;;;;;;5034755;28;20190;-47
2021/01/13 21:21:17;;;;;;;1999.90;999.90;;;-0.10;99.90;;;;;;5038234;28;20974;-48
2021/01/13 21:23:44;;;;;;;1999.90;999.90;;;-0.10;99.90;;;;;;5038824;28;20464;-47
2021/01/13 21:26:19;;;;;;;1999.90;999.90;;;-0.10;99.90;;;;;;5033795;28;20475;-49
2021/01/13 21:28:46;;;;;;;1999.90;999.90;;;-0.10;99.90;;;;;;5039631;28;20458;-48
2021/01/13 21:31:14;;;;;;;1999.90;999.90;;;-0.10;99.90;;;;;;5047578;28;20418;-46
2021/01/13 21:33:40;;;;;;;1999.90;999.90;;;-0.10;99.90;;;;;;5047724;28;20495;-46
2021/01/13 21:36:06;;;;;;;1999.90;999.90;;;-0.10;99.90;;;;;;5052299;28;20432;-46
2021/01/13 21:38:32;;;;;;;1999.90;999.90;;;0.00;99.90;;;;;;5040755;28;20476;-48
2021/01/13 21:40:58;;;;;;;1999.90;999.90;;;0.10;99.90;;;;;;5032278;28;20417;-48
2021/01/13 21:43:26;;;;;;;1999.90;999.90;;;0.10;99.90;;;;;;5032688;28;20470;-48
2021/01/13 21:45:52;;;;;;;1999.90;999.90;;;0.10;99.90;;;;;;5031753;28;20204;-48
2021/01/13 21:48:17;;;;;;;1999.90;999.90;;;0.10;99.90;;;;;;5039913;28;20442;-48
2021/01/13 21:50:43;;;;;;;1999.90;999.90;;;0.10;99.90;;;;;;5036838;28;20187;-48
2021/01/13 21:53:09;;;;;;;1999.90;999.90;;;0.10;99.90;;;;;;5043784;28;20555;-48
2021/01/13 21:55:34;;;;;;;1999.90;999.90;;;0.20;99.90;;;;;;5051809;28;20673;-48
2021/01/13 21:58:00;;;;;;;1999.90;999.90;;;0.20;99.90;;;;;;5039066;28;20249;-48
2021/01/13 22:00:25;;;;;;;1999.90;999.90;;;0.20;99.90;;;;;;5049686;28;20880;-48
2021/01/13 22:02:53;;;;;;;1999.90;999.90;;;0.10;99.90;;;;;;5031521;28;20212;-48
2021/01/13 22:05:18;;;;;;;1999.90;999.90;;;0.10;99.90;;;;;;5035214;28;20209;-49
2021/01/13 22:07:44;;;;;;;1999.90;999.90;;;-0.10;99.90;;;;;;5031971;28;20500;-48
2021/01/13 22:10:10;;;;;;;1999.90;999.90;;;-0.20;99.90;;;;;;5037954;28;20229;-48
2021/01/13 22:12:35;;;;;;;1999.90;999.90;;;-0.20;99.90;;;;;;5042939;28;20192;-49
2021/01/13 22:15:03;;;;;;;1999.90;999.90;;;-0.20;99.90;;;;;;5031217;28;20868;-49
2021/01/13 22:17:32;;;;;;;1999.90;999.90;;;-0.20;99.90;;;;;;5030968;28;20182;-46
2021/01/13 22:19:58;;;;;;;1999.90;999.90;;;-0.20;99.90;;;;;;5038494;28;21039;-46
2021/01/13 22:22:25;;;;;;;1999.90;999.90;;;-0.20;99.90;;;;;;5046417;28;20592;-49
2021/01/13 22:24:51;;;;;;;1999.90;999.90;;;-0.20;99.90;;;;;;5049447;28;20559;-49
2021/01/13 22:27:17;;;;;;;1999.90;999.90;;;-0.30;99.90;;;;;;5051851;28;20425;-46
2021/01/13 22:29:42;;;;;;;1999.90;999.90;;;-0.40;99.90;;;;;;5051490;28;20496;-49
2021/01/13 22:32:08;;;;;;;1999.90;999.90;;;-0.40;99.90;;;;;;5043099;28;20431;-49
2021/01/13 22:34:34;;;;;;;1999.90;999.90;;;-0.40;99.90;;;;;;5031300;28;20179;-47
2021/01/13 22:37:01;;;;;;;1999.90;999.90;;;-0.40;99.90;;;;;;5031589;28;20270;-47
2021/01/13 22:39:27;;;;;;;1999.90;999.90;;;-0.40;99.90;;;;;;5032234;28;20281;-49
2021/01/13 22:41:52;;;;;;;1999.90;999.90;;;-0.40;99.90;;;;;;5046725;28;20545;-49
2021/01/13 22:44:18;;;;;;;1999.90;999.90;;;-0.40;99.90;;;;;;5052033;28;20219;-49
2021/01/13 22:46:44;;;;;;;1999.90;999.90;;;-0.40;99.90;;;;;;5035161;28;20215;-50
2021/01/13 22:49:10;;;;;;;1999.90;999.90;;;-0.40;99.90;;;;;;5031020;28;20233;-49
2021/01/13 22:51:38;;;;;;;1999.90;999.90;;;-0.50;99.90;;;;;;5032147;28;20276;-46
2021/01/13 22:54:03;;;;;;;1999.90;999.90;;;-0.40;99.90;;;;;;5031658;28;21013;-46
2021/01/13 22:56:29;;;;;;;1999.90;999.90;;;-0.50;99.90;;;;;;5041593;28;20578;-46
2021/01/13 22:58:55;;;;;;;1999.90;999.90;;;-0.50;99.90;;;;;;5045144;28;20537;-46
2021/01/13 23:01:20;;;;;;;1999.90;999.90;;;-0.50;99.90;;;;;;5047652;28;20191;-46
2021/01/13 23:03:47;;;;;;;1999.90;999.90;;;-0.50;99.90;;;;;;5043863;28;20211;-46
2021/01/13 23:06:13;;;;;;;1999.90;999.90;;;-0.50;99.90;;;;;;5049985;28;20201;-46
2021/01/13 23:08:39;;;;;;;1999.90;999.90;;;-0.60;99.90;;;;;;5045642;28;20433;-47
2021/01/13 23:11:05;;;;;;;1999.90;999.90;;;-0.60;99.90;;;;;;5030928;28;20445;-47
2021/01/13 23:13:31;;;;;;;1999.90;999.90;;;-0.50;99.90;;;;;;5041441;28;20199;-46
2021/01/13 23:15:57;;;;;;;1999.90;999.90;;;-0.60;99.90;;;;;;5030786;28;20205;-47
2021/01/13 23:18:23;;;;;;;1999.90;999.90;;;-0.70;99.90;;;;;;5039745;28;20444;-47
2021/01/13 23:20:49;;;;;;;1999.90;999.90;;;-0.60;99.90;;;;;;5039385;28;20449;-47
2021/01/13 23:23:15;;;;;;;1999.90;999.90;;;-0.60;99.90;;;;;;5042774;28;20475;-47
2021/01/13 23:25:41;;;;;;;1999.90;999.90;;;-0.60;99.90;;;;;;5028750;28;20264;-47
2021/01/13 23:28:07;;;;;;;1999.90;999.90;;;-0.70;99.90;;;;;;5036252;28;20472;-47
